Time;durP1;ratioP1;P1;durP2;ratioP2;P2;SDS_P1;SDS_P2;PMS_P1;PMS_P2;Temp;Humidity;BMP_temperature;BMP_pressure;BME280_temperature;BME280_humidity;BME280_pressure;Samples;Min_cycle;Max_cycle;Signal;HPM_P1;HPM_P2
2024/02/25 00:01:39;;;;;;;4.80;4.40;;;;;;;;;;5030379;28;20536;-83
2024/02/25 00:04:05;;;;;;;4.90;4.30;;;;;;;;;;5026206;28;20865;-83
2024/02/25 00:06:33;;;;;;;4.40;4.10;;;;;;;;;;5022006;28;20483;-84
2024/02/25 00:08:59;;;;;;;5.00;4.70;;;;;;;;;;5024453;28;20509;-84
2024/02/25 00:11:26;;;;;;;4.83;4.53;;;;;;;;;;5021436;28;20526;-84
2024/02/25 00:13:52;;;;;;;4.40;4.10;;;;;;;;;;5015162;28;20513;-83
2024/02/25 00:16:20;;;;;;;4.90;4.60;;;;;;;;;;5024134;28;20565;-84
2024/02/25 00:18:46;;;;;;;5.80;5.20;;;;;;;;;;5022323;28;20455;-83
2024/02/25 00:21:12;;;;;;;5.60;5.10;;;;;;;;;;5019262;28;20589;-83
2024/02/25 00:23:40;;;;;;;5.37;4.93;;;;;;;;;;5026818;28;20470;-83
2024/02/25 00:26:06;;;;;;;5.67;5.17;;;;;;;;;;5023637;28;20962;-83
2024/02/25 00:28:33;;;;;;;4.63;4.43;;;;;;;;;;5021122;28;20518;-83
2024/02/25 00:30:59;;;;;;;4.77;4.57;;;;;;;;;;5023581;28;20462;-83
2024/02/25 00:33:26;;;;;;;5.17;4.70;;;;;;;;;;5023524;28;20538;-80
2024/02/25 00:35:52;;;;;;;4.83;4.40;;;;;;;;;;5029616;28;21041;-81
2024/02/25 00:38:18;;;;;;;5.13;4.83;;;;;;;;;;5021682;28;20527;-80
2024/02/25 00:40:46;;;;;;;4.30;4.10;;;;;;;;;;5034220;28;20565;-83
2024/02/25 00:43:13;;;;;;;5.03;4.83;;;;;;;;;;5026863;28;20481;-81
2024/02/25 00:45:39;;;;;;;5.10;4.80;;;;;;;;;;5013285;28;20458;-83
2024/02/25 00:48:06;;;;;;;5.53;5.23;;;;;;;;;;5032943;28;20792;-83
2024/02/25 00:50:32;;;;;;;4.80;4.60;;;;;;;;;;5021714;28;20502;-83
2024/02/25 00:52:59;;;;;;;5.83;5.53;;;;;;;;;;5015370;28;20546;-83
2024/02/25 00:55:25;;;;;;;5.13;4.83;;;;;;;;;;5015538;28;20518;-86
2024/02/25 00:57:53;;;;;;;5.07;4.67;;;;;;;;;;5025839;28;20482;-85
2024/02/25 01:00:19;;;;;;;4.73;4.30;;;;;;;;;;5019087;28;20485;-85
2024/02/25 01:02:47;;;;;;;4.80;4.50;;;;;;;;;;5017736;28;20459;-86
2024/02/25 01:05:14;;;;;;;4.93;4.43;;;;;;;;;;5024692;28;20458;-85
2024/02/25 01:07:40;;;;;;;4.70;4.47;;;;;;;;;;5026659;28;20526;-85
2024/02/25 01:10:07;;;;;;;6.33;4.90;;;;;;;;;;5022253;28;20462;-85
2024/02/25 01:12:33;;;;;;;6.43;4.60;;;;;;;;;;5023955;28;20879;-85
2024/02/25 01:15:01;;;;;;;6.40;6.00;;;;;;;;;;5021704;28;20548;-82
2024/02/25 01:17:28;;;;;;;5.77;5.37;;;;;;;;;;5036563;28;20580;-85
2024/02/25 01:19:54;;;;;;;4.67;4.47;;;;;;;;;;5027105;28;20904;-84
2024/02/25 01:22:20;;;;;;;5.20;4.90;;;;;;;;;;5022538;28;20578;-84
2024/02/25 01:24:47;;;;;;;5.33;4.93;;;;;;;;;;5027844;28;20839;-83
2024/02/25 01:27:15;;;;;;;5.17;4.77;;;;;;;;;;5029338;28;20453;-84
2024/02/25 01:29:41;;;;;;;4.00;3.80;;;;;;;;;;5027860;28;20535;-85
2024/02/25 01:32:09;;;;;;;5.03;4.70;;;;;;;;;;5032127;28;20520;-84
2024/02/25 01:34:35;;;;;;;5.57;5.17;;;;;;;;;;5023945;28;20469;-84
2024/02/25 01:37:01;;;;;;;4.80;4.50;;;;;;;;;;5026376;28;20987;-84
2024/02/25 01:39:28;;;;;;;4.70;3.70;;;;;;;;;;5025245;28;20450;-84
2024/02/25 01:41:57;;;;;;;4.70;4.50;;;;;;;;;;5016503;28;20990;-84
2024/02/25 01:44:23;;;;;;;4.70;4.30;;;;;;;;;;5020002;28;20458;-84
2024/02/25 01:46:50;;;;;;;4.43;4.23;;;;;;;;;;5028471;28;20485;-84
2024/02/25 01:49:18;;;;;;;5.57;5.17;;;;;;;;;;5018597;28;20491;-84
2024/02/25 01:51:44;;;;;;;5.20;4.70;;;;;;;;;;5027383;28;20493;-83
2024/02/25 01:54:11;;;;;;;4.70;4.40;;;;;;;;;;5021746;28;20458;-83
2024/02/25 01:56:38;;;;;;;5.30;5.07;;;;;;;;;;5033877;28;20485;-83
2024/02/25 01:59:05;;;;;;;4.20;4.00;;;;;;;;;;5024853;28;20565;-83
2024/02/25 02:01:34;;;;;;;5.87;5.27;;;;;;;;;;5021888;28;20517;-83
2024/02/25 02:04:01;;;;;;;5.33;4.93;;;;;;;;;;5019081;28;20465;-83
2024/02/25 02:06:29;;;;;;;4.80;4.40;;;;;;;;;;5023699;28;20529;-83
2024/02/25 02:08:55;;;;;;;8.63;4.40;;;;;;;;;;5024742;28;20489;-83
2024/02/25 02:11:22;;;;;;;5.83;5.10;;;;;;;;;;5021524;28;20443;-83
2024/02/25 02:13:48;;;;;;;5.10;4.70;;;;;;;;;;5026312;28;20458;-82
2024/02/25 02:16:15;;;;;;;5.60;5.20;;;;;;;;;;5020268;28;20462;-83
2024/02/25 02:18:42;;;;;;;5.57;5.17;;;;;;;;;;5027466;28;20513;-83
2024/02/25 02:21:10;;;;;;;6.30;5.40;;;;;;;;;;5014370;28;20565;-85
2024/02/25 02:23:37;;;;;;;5.30;5.00;;;;;;;;;;5023131;28;20447;-84
2024/02/25 02:26:03;;;;;;;5.23;4.93;;;;;;;;;;5020821;28;20526;-84
2024/02/25 02:28:30;;;;;;;5.13;4.80;;;;;;;;;;5028453;28;20905;-84
2024/02/25 02:30:56;;;;;;;5.60;5.30;;;;;;;;;;5020901;28;20510;-84
2024/02/25 02:33:22;;;;;;;6.20;5.77;;;;;;;;;;5017632;28;20486;-83
2024/02/25 02:35:48;;;;;;;5.97;5.67;;;;;;;;;;5023132;28;20558;-85
2024/02/25 02:38:16;;;;;;;6.57;6.20;;;;;;;;;;5023544;28;20867;-83
2024/02/25 02:40:42;;;;;;;6.00;5.60;;;;;;;;;;5022965;28;20546;-84
2024/02/25 02:43:09;;;;;;;6.60;6.20;;;;;;;;;;5026355;28;20447;-84
2024/02/25 02:45:36;;;;;;;6.00;5.60;;;;;;;;;;5038520;28;20553;-83
2024/02/25 02:48:02;;;;;;;6.67;6.07;;;;;;;;;;5011351;28;20806;-83
2024/02/25 02:50:29;;;;;;;6.70;6.20;;;;;;;;;;5023036;28;20987;-83
2024/02/25 02:52:55;;;;;;;6.50;6.10;;;;;;;;;;5028112;28;20514;-83
2024/02/25 02:55:23;;;;;;;6.73;6.43;;;;;;;;;;5027537;28;20478;-84
2024/02/25 02:57:49;;;;;;;6.57;6.17;;;;;;;;;;5021864;28;20457;-83
2024/02/25 03:00:17;;;;;;;6.60;6.20;;;;;;;;;;5029321;28;20489;-84
2024/02/25 03:02:44;;;;;;;7.00;6.50;;;;;;;;;;5026649;28;20548;-83
2024/02/25 03:05:10;;;;;;;6.80;6.30;;;;;;;;;;5023327;28;20526;-82
2024/02/25 03:07:36;;;;;;;7.23;6.73;;;;;;;;;;5020386;28;20590;-82
2024/02/25 03:10:04;;;;;;;7.30;6.90;;;;;;;;;;5025013;28;20464;-82
2024/02/25 03:12:31;;;;;;;6.87;6.37;;;;;;;;;;5031232;28;20508;-83
2024/02/25 03:14:58;;;;;;;6.83;6.43;;;;;;;;;;5024695;28;20468;-83
2024/02/25 03:17:24;;;;;;;7.30;6.90;;;;;;;;;;5018560;28;20580;-83
2024/02/25 03:19:50;;;;;;;7.63;6.90;;;;;;;;;;5020165;28;20486;-82
2024/02/25 03:22:17;;;;;;;7.00;6.60;;;;;;;;;;5019613;28;20538;-83
2024/02/25 03:24:43;;;;;;;7.37;6.87;;;;;;;;;;5021240;28;20489;-83
2024/02/25 03:27:09;;;;;;;7.20;6.50;;;;;;;;;;5021365;28;20482;-83
2024/02/25 03:29:37;;;;;;;6.80;6.20;;;;;;;;;;5016635;28;20450;-83
2024/02/25 03:32:04;;;;;;;7.00;6.30;;;;;;;;;;5028066;28;20510;-83
2024/02/25 03:34:30;;;;;;;6.47;5.97;;;;;;;;;;5023505;28;20483;-83
2024/02/25 03:36:57;;;;;;;6.83;6.33;;;;;;;;;;5021883;28;20461;-83
2024/02/25 03:39:23;;;;;;;7.40;6.20;;;;;;;;;;5026980;28;20451;-83
2024/02/25 03:41:49;;;;;;;5.87;5.47;;;;;;;;;;5024429;28;21121;-84
2024/02/25 03:44:16;;;;;;;7.13;6.70;;;;;;;;;;5027063;28;20488;-85
2024/02/25 03:46:44;;;;;;;6.20;5.70;;;;;;;;;;5024780;28;20485;-80
2024/02/25 03:49:10;;;;;;;6.43;5.90;;;;;;;;;;5022054;28;20473;-83
2024/02/25 03:51:39;;;;;;;5.90;5.60;;;;;;;;;;5017350;28;20467;-82
2024/02/25 03:54:05;;;;;;;6.50;6.00;;;;;;;;;;5025426;28;20520;-83
2024/02/25 03:56:32;;;;;;;6.87;6.37;;;;;;;;;;5026168;28;20514;-82
2024/02/25 03:58:58;;;;;;;6.27;5.90;;;;;;;;;;5014758;28;20516;-81
2024/02/25 04:01:24;;;;;;;6.83;6.43;;;;;;;;;;5027466;28;20574;-79
2024/02/25 04:03:52;;;;;;;6.40;5.93;;;;;;;;;;5036743;28;20489;-81
2024/02/25 04:06:19;;;;;;;6.37;5.93;;;;;;;;;;5023108;28;20558;-82
2024/02/25 04:08:45;;;;;;;7.00;6.50;;;;;;;;;;5019123;28;20557;-82
2024/02/25 04:11:11;;;;;;;6.80;6.30;;;;;;;;;;5025056;28;20505;-81
2024/02/25 04:13:38;;;;;;;6.10;5.80;;;;;;;;;;5029899;28;20470;-80
2024/02/25 04:16:04;;;;;;;5.80;5.40;;;;;;;;;;5024850;28;20565;-81
2024/02/25 04:18:30;;;;;;;6.27;5.87;;;;;;;;;;5024717;28;20469;-81
2024/02/25 04:20:58;;;;;;;6.97;6.33;;;;;;;;;;5027786;28;21146;-81
2024/02/25 04:23:24;;;;;;;5.70;5.30;;;;;;;;;;5013658;28;21007;-82
2024/02/25 04:25:51;;;;;;;6.40;5.90;;;;;;;;;;5024383;28;20969;-83
2024/02/25 04:28:17;;;;;;;6.50;6.00;;;;;;;;;;5021621;28;20491;-83
2024/02/25 04:30:44;;;;;;;6.80;6.40;;;;;;;;;;5025588;28;20493;-81
2024/02/25 04:33:10;;;;;;;6.07;5.67;;;;;;;;;;5031310;28;20462;-81
2024/02/25 04:35:37;;;;;;;6.73;6.23;;;;;;;;;;5014448;28;20454;-83
2024/02/25 04:38:05;;;;;;;6.20;5.70;;;;;;;;;;5021758;28;21023;-83
2024/02/25 04:40:31;;;;;;;6.10;5.70;;;;;;;;;;5022230;28;20501;-83
2024/02/25 04:42:58;;;;;;;6.30;5.90;;;;;;;;;;5028410;28;20585;-83
2024/02/25 04:45:25;;;;;;;7.07;6.43;;;;;;;;;;5022587;28;20510;-83
2024/02/25 04:47:51;;;;;;;6.60;6.10;;;;;;;;;;5027919;28;20462;-81
2024/02/25 04:50:17;;;;;;;7.00;6.50;;;;;;;;;;5013498;28;20478;-84
2024/02/25 04:52:44;;;;;;;7.00;6.47;;;;;;;;;;5020927;28;20531;-81
2024/02/25 04:55:13;;;;;;;6.00;5.60;;;;;;;;;;5023417;28;20577;-83
2024/02/25 04:57:39;;;;;;;7.20;6.70;;;;;;;;;;5024434;28;20907;-82
2024/02/25 05:00:07;;;;;;;7.13;6.53;;;;;;;;;;5025276;28;20453;-82
2024/02/25 05:02:33;;;;;;;6.47;5.90;;;;;;;;;;5026577;28;20549;-82
2024/02/25 05:04:59;;;;;;;6.87;6.27;;;;;;;;;;5024044;28;21265;-82
2024/02/25 05:07:26;;;;;;;6.97;6.47;;;;;;;;;;5021453;28;20495;-82
2024/02/25 05:09:52;;;;;;;5.87;5.40;;;;;;;;;;5021524;28;20489;-82
2024/02/25 05:12:22;;;;;;;6.30;5.80;;;;;;;;;;5020244;28;21276;-82
2024/02/25 05:14:48;;;;;;;5.67;5.17;;;;;;;;;;5020361;28;20479;-82
2024/02/25 05:17:14;;;;;;;5.90;5.30;;;;;;;;;;5022348;28;20893;-82
2024/02/25 05:19:41;;;;;;;6.13;5.70;;;;;;;;;;5026519;28;20518;-82
2024/02/25 05:22:07;;;;;;;6.33;5.93;;;;;;;;;;5017374;28;20586;-82
2024/02/25 05:24:32;;;;;;;6.90;6.30;;;;;;;;;;5022274;28;20545;-82
2024/02/25 05:27:00;;;;;;;7.20;6.50;;;;;;;;;;5021293;28;20482;-82
2024/02/25 05:29:27;;;;;;;7.17;6.57;;;;;;;;;;5024127;28;20231;-83
2024/02/25 05:31:54;;;;;;;6.90;6.50;;;;;;;;;;5018574;28;20541;-83
2024/02/25 05:34:20;;;;;;;6.93;6.40;;;;;;;;;;5031993;28;20501;-83
2024/02/25 05:36:46;;;;;;;6.83;6.37;;;;;;;;;;5029685;28;20532;-83
2024/02/25 05:39:13;;;;;;;5.80;5.30;;;;;;;;;;5017941;28;20997;-83
2024/02/25 05:41:40;;;;;;;5.80;5.30;;;;;;;;;;5005996;28;20463;-84
2024/02/25 05:44:07;;;;;;;5.90;5.50;;;;;;;;;;5020457;28;20501;-82
2024/02/25 05:46:35;;;;;;;6.23;5.83;;;;;;;;;;5019232;28;20518;-83
2024/02/25 05:49:01;;;;;;;6.00;5.60;;;;;;;;;;5020322;28;20971;-82
2024/02/25 05:51:28;;;;;;;5.90;5.40;;;;;;;;;;5019019;28;20442;-82
2024/02/25 05:53:54;;;;;;;5.93;5.53;;;;;;;;;;5010389;28;21040;-81
2024/02/25 05:56:20;;;;;;;5.40;4.90;;;;;;;;;;5006719;28;20459;-83
2024/02/25 05:58:47;;;;;;;5.30;5.00;;;;;;;;;;5024514;28;20542;-82
2024/02/25 06:01:13;;;;;;;6.20;5.50;;;;;;;;;;5020392;28;20474;-84
2024/02/25 06:03:41;;;;;;;5.60;5.20;;;;;;;;;;5022315;28;20489;-85
2024/02/25 06:06:08;;;;;;;4.90;4.60;;;;;;;;;;5023943;28;20530;-83
2024/02/25 06:08:35;;;;;;;4.77;4.50;;;;;;;;;;5022958;28;20474;-84
2024/02/25 06:11:01;;;;;;;5.50;5.10;;;;;;;;;;5022004;28;20524;-83
2024/02/25 06:13:27;;;;;;;5.13;4.83;;;;;;;;;;5021089;28;20483;-82
2024/02/25 06:15:54;;;;;;;5.03;4.73;;;;;;;;;;5019631;28;20985;-82
2024/02/25 06:18:20;;;;;;;5.47;4.90;;;;;;;;;;5018137;28;20562;-82
2024/02/25 06:20:48;;;;;;;5.03;4.73;;;;;;;;;;5021172;28;20466;-82
2024/02/25 06:23:14;;;;;;;5.43;5.13;;;;;;;;;;5019089;28;20538;-82
2024/02/25 06:25:41;;;;;;;5.23;4.83;;;;;;;;;;5018993;28;20490;-82
2024/02/25 06:28:07;;;;;;;5.60;5.30;;;;;;;;;;5018684;28;20913;-83
2024/02/25 06:30:33;;;;;;;4.90;4.70;;;;;;;;;;5020609;28;21142;-83
2024/02/25 06:33:00;;;;;;;5.90;5.50;;;;;;;;;;5018329;28;20482;-81
2024/02/25 06:35:26;;;;;;;5.07;4.80;;;;;;;;;;5019772;28;20483;-82
2024/02/25 06:37:54;;;;;;;4.90;4.70;;;;;;;;;;5018536;28;20451;-81
2024/02/25 06:40:20;;;;;;;5.03;4.73;;;;;;;;;;5019839;28;20546;-81
2024/02/25 06:42:46;;;;;;;5.00;4.80;;;;;;;;;;5018781;28;20479;-81
2024/02/25 06:45:13;;;;;;;4.73;4.43;;;;;;;;;;5018192;28;20570;-81
2024/02/25 06:47:39;;;;;;;4.30;4.10;;;;;;;;;;5018552;28;20459;-81
2024/02/25 06:50:06;;;;;;;4.70;4.40;;;;;;;;;;5019171;28;20534;-82
2024/02/25 06:52:33;;;;;;;4.60;4.30;;;;;;;;;;5019925;28;20537;-81
2024/02/25 06:55:00;;;;;;;5.00;4.70;;;;;;;;;;5018517;28;20461;-81
2024/02/25 06:57:27;;;;;;;5.20;4.90;;;;;;;;;;5018045;28;20534;-81
2024/02/25 06:59:53;;;;;;;5.90;5.40;;;;;;;;;;5018418;28;20534;-83
2024/02/25 07:02:19;;;;;;;5.90;5.40;;;;;;;;;;5019784;28;20510;-82
2024/02/25 07:04:46;;;;;;;5.57;5.17;;;;;;;;;;5021174;28;20462;-82
2024/02/25 07:07:13;;;;;;;7.43;5.00;;;;;;;;;;5018652;28;20446;-81
2024/02/25 07:09:41;;;;;;;5.40;5.10;;;;;;;;;;5018687;28;20474;-83
2024/02/25 07:12:09;;;;;;;5.17;4.87;;;;;;;;;;5024399;28;20460;-83
2024/02/25 07:14:35;;;;;;;5.27;4.97;;;;;;;;;;5024875;28;20450;-84
2024/02/25 07:17:01;;;;;;;5.50;5.20;;;;;;;;;;5019740;28;20517;-81
2024/02/25 07:19:28;;;;;;;5.80;5.50;;;;;;;;;;5017952;28;20482;-81
2024/02/25 07:21:54;;;;;;;5.13;4.93;;;;;;;;;;5018584;28;21058;-81
2024/02/25 07:24:21;;;;;;;5.20;5.00;;;;;;;;;;5008396;28;20565;-81
2024/02/25 07:26:47;;;;;;;5.37;5.07;;;;;;;;;;5020494;28;20445;-79
2024/02/25 07:29:15;;;;;;;5.03;4.80;;;;;;;;;;5023504;28;20494;-79
2024/02/25 07:31:41;;;;;;;5.40;5.10;;;;;;;;;;5022369;28;20530;-78
2024/02/25 07:34:08;;;;;;;4.77;4.57;;;;;;;;;;5021511;28;20522;-81
2024/02/25 07:36:34;;;;;;;5.10;4.80;;;;;;;;;;5022020;28;21048;-81
2024/02/25 07:39:01;;;;;;;5.07;4.87;;;;;;;;;;5019607;28;20522;-81
2024/02/25 07:41:27;;;;;;;5.30;5.00;;;;;;;;;;5019920;28;20549;-79
2024/02/25 07:43:53;;;;;;;5.10;4.70;;;;;;;;;;5022574;28;20546;-80
2024/02/25 07:46:21;;;;;;;6.10;5.80;;;;;;;;;;5031613;28;20447;-81
2024/02/25 07:48:48;;;;;;;5.00;4.80;;;;;;;;;;5030936;28;20465;-84
2024/02/25 07:51:14;;;;;;;6.17;5.70;;;;;;;;;;5027679;28;20465;-86
2024/02/25 07:53:40;;;;;;;5.40;5.07;;;;;;;;;;5022258;28;20463;-80
2024/02/25 07:56:07;;;;;;;5.30;5.00;;;;;;;;;;5020097;28;20466;-86
2024/02/25 07:58:33;;;;;;;5.03;4.83;;;;;;;;;;5021929;28;20507;-80
2024/02/25 08:01:00;;;;;;;4.70;4.47;;;;;;;;;;5020667;28;20545;-81
2024/02/25 08:03:27;;;;;;;4.83;4.53;;;;;;;;;;5020469;28;20903;-83
2024/02/25 08:05:54;;;;;;;4.57;4.27;;;;;;;;;;5023075;28;20545;-80
2024/02/25 08:08:20;;;;;;;5.43;4.00;;;;;;;;;;5019856;28;20526;-80
2024/02/25 08:10:47;;;;;;;4.70;4.50;;;;;;;;;;5022262;28;20487;-80
2024/02/25 08:13:13;;;;;;;4.80;4.60;;;;;;;;;;5025769;28;20478;-80
2024/02/25 08:15:39;;;;;;;5.17;4.87;;;;;;;;;;5024261;28;20533;-80
2024/02/25 08:18:06;;;;;;;5.27;4.97;;;;;;;;;;5023980;28;20521;-80
2024/02/25 08:20:33;;;;;;;5.27;4.97;;;;;;;;;;5020601;28;20494;-81
2024/02/25 08:23:00;;;;;;;5.43;5.03;;;;;;;;;;5023118;28;20509;-81
2024/02/25 08:25:26;;;;;;;5.30;5.00;;;;;;;;;;5030706;28;20460;-79
2024/02/25 08:27:53;;;;;;;8.63;7.90;;;;;;;;;;5031225;28;20566;-80
2024/02/25 08:30:22;;;;;;;5.53;5.00;;;;;;;;;;5027198;28;20522;-80
2024/02/25 08:32:48;;;;;;;4.83;4.53;;;;;;;;;;5029047;28;21031;-78
2024/02/25 08:35:15;;;;;;;4.93;4.63;;;;;;;;;;5023548;28;20477;-79
2024/02/25 08:37:43;;;;;;;5.47;4.87;;;;;;;;;;5026536;28;20509;-78
2024/02/25 08:40:10;;;;;;;4.97;4.67;;;;;;;;;;5026355;28;20478;-77
2024/02/25 08:42:36;;;;;;;5.80;5.50;;;;;;;;;;5022256;28;20459;-78
2024/02/25 08:45:03;;;;;;;7.00;6.60;;;;;;;;;;5025918;28;20459;-81
2024/02/25 08:47:30;;;;;;;6.37;5.97;;;;;;;;;;5020649;28;20474;-79
2024/02/25 08:49:57;;;;;;;6.60;6.20;;;;;;;;;;5018037;28;20475;-80
2024/02/25 08:52:24;;;;;;;6.00;5.60;;;;;;;;;;5014933;28;20465;-79
2024/02/25 08:54:51;;;;;;;9.90;9.40;;;;;;;;;;5021754;28;20542;-78
2024/02/25 08:57:18;;;;;;;11.60;11.00;;;;;;;;;;5018849;28;20509;-77
2024/02/25 08:59:44;;;;;;;11.90;11.30;;;;;;;;;;5020240;28;20467;-78
2024/02/25 09:02:09;;;;;;;11.27;10.50;;;;;;;;;;5027617;28;20541;-78
2024/02/25 09:04:36;;;;;;;5.97;5.67;;;;;;;;;;5025930;28;20931;-79
2024/02/25 09:07:03;;;;;;;7.67;7.17;;;;;;;;;;5012466;28;20282;-80
2024/02/25 09:09:29;;;;;;;7.50;5.63;;;;;;;;;;5017201;28;20489;-80
2024/02/25 09:11:58;;;;;;;5.27;4.97;;;;;;;;;;5023278;28;20473;-79
2024/02/25 09:14:24;;;;;;;6.27;5.97;;;;;;;;;;5019955;28;20453;-79
2024/02/25 09:16:50;;;;;;;5.80;5.50;;;;;;;;;;5015244;28;20506;-78
2024/02/25 09:19:17;;;;;;;6.07;5.73;;;;;;;;;;5019563;28;20524;-79
2024/02/25 09:21:47;;;;;;;6.53;6.23;;;;;;;;;;5010280;28;21084;-80
2024/02/25 09:24:14;;;;;;;5.97;5.67;;;;;;;;;;5019921;28;20988;-79
2024/02/25 09:26:43;;;;;;;5.80;5.50;;;;;;;;;;5022352;28;20454;-81
2024/02/25 09:29:10;;;;;;;6.83;6.33;;;;;;;;;;5020096;28;20845;-78
2024/02/25 09:31:37;;;;;;;6.37;5.97;;;;;;;;;;5018896;28;20498;-77
2024/02/25 09:34:04;;;;;;;4.90;4.70;;;;;;;;;;5012337;28;20534;-78
2024/02/25 09:36:31;;;;;;;5.23;4.90;;;;;;;;;;5021774;28;20467;-79
2024/02/25 09:38:58;;;;;;;5.37;4.97;;;;;;;;;;5008858;28;20984;-79
2024/02/25 09:41:28;;;;;;;6.07;5.77;;;;;;;;;;5022413;28;20454;-80
2024/02/25 09:43:55;;;;;;;5.67;5.37;;;;;;;;;;5019363;28;20489;-79
2024/02/25 09:46:24;;;;;;;5.20;4.90;;;;;;;;;;5023022;28;20455;-79
2024/02/25 09:48:51;;;;;;;5.60;5.30;;;;;;;;;;5027744;28;20454;-79
2024/02/25 09:51:18;;;;;;;5.30;5.10;;;;;;;;;;5021180;28;21219;-80
2024/02/25 09:53:44;;;;;;;6.00;5.70;;;;;;;;;;5022565;28;21043;-79
2024/02/25 09:56:11;;;;;;;5.60;5.30;;;;;;;;;;5018732;28;20490;-80
2024/02/25 09:58:37;;;;;;;6.13;5.73;;;;;;;;;;5022167;28;20467;-78
2024/02/25 10:01:04;;;;;;;6.07;5.77;;;;;;;;;;5024089;28;20486;-77
2024/02/25 10:03:31;;;;;;;5.97;5.57;;;;;;;;;;5019350;28;20529;-78
2024/02/25 10:05:58;;;;;;;5.87;5.57;;;;;;;;;;5020996;28;20494;-79
2024/02/25 10:08:24;;;;;;;5.93;5.63;;;;;;;;;;5017099;28;20543;-79
2024/02/25 10:10:52;;;;;;;5.67;5.37;;;;;;;;;;5019307;28;20486;-80
2024/02/25 10:13:19;;;;;;;6.00;5.70;;;;;;;;;;5023063;28;20489;-79
2024/02/25 10:15:45;;;;;;;9.07;8.67;;;;;;;;;;5018969;28;20493;-79
2024/02/25 10:18:12;;;;;;;10.10;9.60;;;;;;;;;;5022806;28;20477;-78
2024/02/25 10:20:40;;;;;;;10.20;9.70;;;;;;;;;;5014430;28;20463;-79
2024/02/25 10:23:07;;;;;;;9.83;9.40;;;;;;;;;;5030044;28;20789;-79
2024/02/25 10:25:34;;;;;;;10.13;9.63;;;;;;;;;;5016376;28;20461;-79
2024/02/25 10:28:11;;;;;;;9.90;9.40;;;;;;;;;;5020916;28;20533;-79
2024/02/25 10:30:38;;;;;;;6.70;6.30;;;;;;;;;;5018509;28;20490;-81
2024/02/25 10:33:13;;;;;;;5.10;4.80;;;;;;;;;;5012633;28;20483;-79
2024/02/25 10:35:41;;;;;;;5.70;5.40;;;;;;;;;;5021196;28;20461;-79
2024/02/25 10:38:10;;;;;;;7.00;6.60;;;;;;;;;;5015989;28;20463;-79
2024/02/25 10:40:36;;;;;;;6.57;6.27;;;;;;;;;;5014284;28;20471;-80
2024/02/25 10:43:03;;;;;;;4.40;4.10;;;;;;;;;;5022266;28;20485;-80
2024/02/25 10:45:31;;;;;;;4.50;4.30;;;;;;;;;;5025679;28;20462;-80
2024/02/25 10:47:57;;;;;;;4.80;4.47;;;;;;;;;;5019870;28;21248;-80
2024/02/25 10:50:24;;;;;;;5.00;4.70;;;;;;;;;;5017723;28;20490;-79
2024/02/25 10:52:52;;;;;;;4.37;4.10;;;;;;;;;;5009082;28;20487;-80
2024/02/25 10:55:21;;;;;;;4.50;4.30;;;;;;;;;;5017380;28;20458;-79
2024/02/25 10:57:47;;;;;;;4.60;4.30;;;;;;;;;;5018432;28;20461;-78
2024/02/25 11:00:14;;;;;;;5.00;4.70;;;;;;;;;;5017270;28;20474;-79
2024/02/25 11:02:41;;;;;;;4.37;4.17;;;;;;;;;;5022211;28;21075;-80
2024/02/25 11:05:08;;;;;;;3.70;3.50;;;;;;;;;;5017798;28;21223;-80
2024/02/25 11:07:36;;;;;;;4.70;4.50;;;;;;;;;;5022025;28;20447;-80
2024/02/25 11:10:08;;;;;;;5.63;5.33;;;;;;;;;;5010653;28;20474;-80
2024/02/25 11:12:35;;;;;;;4.90;4.60;;;;;;;;;;5023189;28;20489;-80
2024/02/25 11:15:03;;;;;;;4.63;4.37;;;;;;;;;;5022191;28;20485;-80
2024/02/25 11:17:29;;;;;;;5.60;5.40;;;;;;;;;;5025321;28;20494;-79
2024/02/25 11:19:59;;;;;;;4.40;4.20;;;;;;;;;;5020282;28;21063;-81
2024/02/25 11:22:42;;;;;;;5.27;4.93;;;;;;;;;;5026364;28;20538;-80
2024/02/25 11:25:23;;;;;;;5.77;5.37;;;;;;;;;;5020885;28;20487;-81
2024/02/25 11:27:57;;;;;;;4.10;3.90;;;;;;;;;;5021145;28;20546;-80
2024/02/25 11:30:33;;;;;;;5.97;5.57;;;;;;;;;;5018718;28;20489;-80
2024/02/25 11:33:00;;;;;;;6.17;5.57;;;;;;;;;;5020758;28;20484;-80
2024/02/25 11:35:26;;;;;;;5.30;4.97;;;;;;;;;;5024557;28;20443;-80
2024/02/25 11:37:53;;;;;;;4.80;4.50;;;;;;;;;;5019857;28;20482;-78
2024/02/25 11:40:20;;;;;;;5.40;4.90;;;;;;;;;;5011321;28;20471;-80
2024/02/25 11:42:46;;;;;;;4.60;4.40;;;;;;;;;;5020640;28;20446;-78
2024/02/25 11:45:14;;;;;;;4.93;4.63;;;;;;;;;;5022631;28;20500;-81
2024/02/25 11:47:40;;;;;;;4.40;4.20;;;;;;;;;;5030989;28;20541;-78
2024/02/25 11:50:08;;;;;;;3.80;3.60;;;;;;;;;;5020908;28;20455;-79
2024/02/25 11:52:34;;;;;;;3.87;3.67;;;;;;;;;;5021406;28;20823;-79
2024/02/25 11:55:00;;;;;;;4.47;4.17;;;;;;;;;;5026370;28;20964;-79
2024/02/25 11:57:27;;;;;;;4.30;4.10;;;;;;;;;;5030152;28;20441;-79
2024/02/25 11:59:53;;;;;;;4.90;4.50;;;;;;;;;;5031768;28;20776;-77
2024/02/25 12:02:21;;;;;;;4.40;4.20;;;;;;;;;;5029990;28;20525;-78
2024/02/25 12:04:47;;;;;;;4.73;4.43;;;;;;;;;;5026140;28;20521;-79
2024/02/25 12:07:14;;;;;;;5.70;5.10;;;;;;;;;;5028816;28;20478;-78
2024/02/25 12:09:41;;;;;;;5.27;4.87;;;;;;;;;;5019022;28;20516;-78
2024/02/25 12:12:07;;;;;;;4.77;4.47;;;;;;;;;;5019644;28;20482;-79
2024/02/25 12:14:38;;;;;;;6.50;6.10;;;;;;;;;;5022982;28;20503;-79
2024/02/25 12:17:05;;;;;;;5.93;5.63;;;;;;;;;;5024237;28;20486;-77
2024/02/25 12:19:33;;;;;;;6.50;6.10;;;;;;;;;;5030840;28;20492;-78
2024/02/25 12:22:01;;;;;;;5.60;5.40;;;;;;;;;;5029117;28;20482;-78
2024/02/25 12:24:28;;;;;;;5.60;5.30;;;;;;;;;;5023504;28;20505;-80
2024/02/25 12:26:56;;;;;;;5.93;5.63;;;;;;;;;;5020124;28;20455;-79
2024/02/25 12:29:23;;;;;;;6.43;6.03;;;;;;;;;;5022630;28;20501;-79
2024/02/25 12:31:50;;;;;;;6.10;5.80;;;;;;;;;;5018515;28;20879;-79
2024/02/25 12:34:16;;;;;;;5.80;5.60;;;;;;;;;;5027100;28;20682;-79
2024/02/25 12:36:44;;;;;;;5.30;5.10;;;;;;;;;;5024991;28;20493;-80
2024/02/25 12:39:12;;;;;;;5.33;5.03;;;;;;;;;;5031746;28;20450;-81
2024/02/25 12:41:39;;;;;;;5.00;4.70;;;;;;;;;;5029498;28;20454;-80
2024/02/25 12:44:07;;;;;;;5.63;5.23;;;;;;;;;;5023782;28;20542;-81
2024/02/25 12:46:34;;;;;;;5.03;4.73;;;;;;;;;;5020010;28;20554;-81
2024/02/25 12:49:07;;;;;;;4.73;4.33;;;;;;;;;;5019452;28;20467;-80
2024/02/25 12:51:34;;;;;;;4.60;4.40;;;;;;;;;;5018235;28;20897;-78
2024/02/25 12:54:02;;;;;;;5.20;4.70;;;;;;;;;;5022932;28;20533;-79
2024/02/25 12:56:28;;;;;;;4.90;4.50;;;;;;;;;;5019518;28;20494;-80
2024/02/25 12:58:55;;;;;;;5.27;4.77;;;;;;;;;;5019243;28;21019;-79
2024/02/25 13:01:22;;;;;;;4.70;4.50;;;;;;;;;;5021874;28;20480;-80
2024/02/25 13:03:48;;;;;;;4.50;4.30;;;;;;;;;;5025674;28;20878;-81
2024/02/25 13:06:15;;;;;;;4.63;4.43;;;;;;;;;;5031428;28;20488;-79
2024/02/25 13:08:41;;;;;;;4.53;4.33;;;;;;;;;;5032945;28;20480;-79
2024/02/25 13:11:10;;;;;;;4.63;4.43;;;;;;;;;;5025258;28;20457;-80
2024/02/25 13:13:36;;;;;;;5.90;5.53;;;;;;;;;;5028270;28;20493;-79
2024/02/25 13:16:03;;;;;;;6.27;5.87;;;;;;;;;;5026129;28;20454;-77
2024/02/25 13:18:29;;;;;;;5.87;5.60;;;;;;;;;;5024075;28;20843;-79
2024/02/25 13:20:56;;;;;;;6.00;5.70;;;;;;;;;;5022910;28;20987;-81
2024/02/25 13:23:22;;;;;;;5.40;5.20;;;;;;;;;;5018899;28;20459;-80
2024/02/25 13:25:49;;;;;;;5.73;5.43;;;;;;;;;;5018921;28;20577;-81
2024/02/25 13:28:17;;;;;;;6.50;6.20;;;;;;;;;;5029515;28;20447;-83
2024/02/25 13:30:43;;;;;;;5.73;5.43;;;;;;;;;;5018622;28;20457;-82
2024/02/25 13:33:10;;;;;;;5.20;4.90;;;;;;;;;;5022123;28;20541;-83
2024/02/25 13:35:38;;;;;;;4.73;4.53;;;;;;;;;;5027938;28;20547;-83
2024/02/25 13:38:05;;;;;;;4.80;4.50;;;;;;;;;;5021153;28;20454;-82
2024/02/25 13:40:31;;;;;;;4.90;4.70;;;;;;;;;;5015596;28;21043;-81
2024/02/25 13:42:58;;;;;;;5.03;4.73;;;;;;;;;;5031013;28;20477;-80
2024/02/25 13:45:25;;;;;;;5.70;5.27;;;;;;;;;;5032302;28;20513;-82
2024/02/25 13:47:52;;;;;;;5.87;5.67;;;;;;;;;;5030578;28;20489;-81
2024/02/25 13:50:20;;;;;;;5.57;5.37;;;;;;;;;;5031631;28;20450;-82
2024/02/25 13:52:46;;;;;;;5.10;4.90;;;;;;;;;;5032571;28;20521;-81
2024/02/25 13:55:13;;;;;;;5.13;4.87;;;;;;;;;;5031321;28;20496;-81
2024/02/25 13:57:39;;;;;;;5.40;5.10;;;;;;;;;;5030496;28;20458;-80
2024/02/25 14:00:07;;;;;;;5.53;5.07;;;;;;;;;;5020244;28;20524;-81
2024/02/25 14:02:35;;;;;;;5.33;5.07;;;;;;;;;;5022326;28;20471;-81
2024/02/25 14:05:03;;;;;;;5.00;4.70;;;;;;;;;;5010898;28;21410;-81
2024/02/25 14:07:30;;;;;;;6.17;5.87;;;;;;;;;;5020848;28;20458;-81
2024/02/25 14:09:57;;;;;;;6.37;6.07;;;;;;;;;;5019099;28;20461;-82
2024/02/25 14:12:24;;;;;;;5.20;4.70;;;;;;;;;;5029741;28;20460;-82
2024/02/25 14:14:50;;;;;;;5.60;5.40;;;;;;;;;;5026384;28;20458;-83
2024/02/25 14:17:16;;;;;;;5.97;5.67;;;;;;;;;;5006876;28;20546;-79
2024/02/25 14:19:44;;;;;;;5.97;5.60;;;;;;;;;;5026122;28;20494;-82
2024/02/25 14:22:11;;;;;;;5.30;4.90;;;;;;;;;;5029700;28;20437;-83
2024/02/25 14:24:37;;;;;;;4.87;4.57;;;;;;;;;;5024676;28;20538;-83
2024/02/25 14:27:04;;;;;;;4.70;4.50;;;;;;;;;;5019816;28;20489;-84
2024/02/25 14:29:30;;;;;;;6.20;5.90;;;;;;;;;;5021765;28;20451;-82
2024/02/25 14:31:57;;;;;;;6.00;5.70;;;;;;;;;;5014879;28;20526;-79
2024/02/25 14:34:24;;;;;;;5.23;4.93;;;;;;;;;;5019883;28;20486;-80
2024/02/25 14:36:51;;;;;;;6.50;6.07;;;;;;;;;;5013435;28;20487;-81
2024/02/25 14:39:18;;;;;;;5.10;4.80;;;;;;;;;;5014424;28;20454;-84
2024/02/25 14:41:44;;;;;;;10.47;9.97;;;;;;;;;;5026083;28;20450;-79